Terminal Aerodrome Forecast
Issued by NWS

Home | Current Version | Previous Version | Text Only | Print | Product List | Glossary On
Versions: 1 2 3 4 5 6 7 8 9 10 11 12 13
000
FTUS45 KRIW 061300 AAA
TAFJAC
TAF AMD
KJAC 061334Z 0614/0712 35005KT P6SM VCFG SCT030 BKN040
     FM061600 VRB05KT P6SM SCT050
     FM062200 VRB05KT P6SM SCT050 SCT080
     FM070300 01011KT P6SM VCSH BKN050
     FM070700 01011KT P6SM -SHRA BKN030
      AMD LTD TO CLD VIS AND WIND=

USA.gov is the U.S. government's official web portal to all federal, state and local government web resources and services.